Weatherford, OK (73096)

12:26 PM CST on December 03, 2016 (GMT -0600)
Clinton Municipal | | Change Station

Elev 1614 ft 35.54 °N, 98.93 °W | Updated -507 second ago

Overcast
Overcast
43 °F
Feels Like 43 °F
N
0
Wind Variable Wind from North

Today
High -- | Low -- °F
--% Chance of Precip.
Yesterday
High -- | Low -- °F
Precip. -- in
Pressure 30.15 in
Visibility -9999.0 miles
Clouds Mostly Cloudy 1100 ft
Overcast 1700 ft
Dew Point 37 °F
Humidity 81%
Rainfall 0.08 in
Snow Depth Not available.
7:28 AM 5:21 PM
Waxing Crescent, 16% visible
METAR KCLK 031835Z AUTO 00000KT BKN011 OVC017 06/03 A3015 RMK AO2 PWINO
Pressure 30.15 in
Visibility -9999.0 miles
Clouds Mostly Cloudy 1100 ft
Overcast 1700 ft
Dew Point 37 °F
Humidity 81%
Rainfall 0.08 in
Snow Depth Not available.
7:28 AM 5:21 PM
Waxing Crescent, 16% visible
METAR KCLK 031835Z AUTO 00000KT BKN011 OVC017 06/03 A3015 RMK AO2 PWINO

10-Day Weather Forecast

Almanac

Astronomy

Dec. 03, 2016 Rise Set
Actual Time
Civil Twilight
Nautical Twilight
Astronomical Twilight
Moon
Length of Visible Light
Length of Day
Tomorrow will be .
, % of the Moon is Illuminated

Today's Extremes

State Highs State Lows

Community

WunderPhotos

Upload Photos

1,955,457 photos uploaded!

WunderBlog® & News

Nearby

Air Quality

  Air Quality AQ Index Pollutant
Not available.

Snow Depth

Station Depth Elevation

Earthquake Activity

City Distance Mag. Time & Date
Minimum magnitude displayed is 2.5.

Coastal Water Temperatures

Place Temperature

Stations

Nearby Weather Stations

Station Location Temp. Windchill Dew Point Humidity Wind Precip. Elev Updated Type
                   

Watches & Warnings

There are currently no watches in effect.